Time;durP1;ratioP1;P1;durP2;ratioP2;P2;SDS_P1;SDS_P2;PMS_P1;PMS_P2;Temp;Humidity;BMP_temperature;BMP_pressure;BME280_temperature;BME280_humidity;BME280_pressure;Samples;Min_cycle;Max_cycle;Signal;HPM_P1;HPM_P2
2022/08/10 00:01:29;;;;;;;3.88;2.40;;;;;;;32.88;35.52;100384.06;5000622;28;20082;-76
2022/08/10 00:03:58;;;;;;;5.15;2.42;;;;;;;33.01;35.50;100399.28;5005303;28;20084;-75
2022/08/10 00:06:26;;;;;;;5.47;2.35;;;;;;;32.86;35.17;100383.31;5000922;28;20134;-74
2022/08/10 00:08:55;;;;;;;4.70;2.50;;;;;;;32.80;35.75;100381.06;4991529;28;20050;-73
2022/08/10 00:11:24;;;;;;;7.38;2.60;;;;;;;32.91;35.46;100401.75;4998506;28;20334;-78
2022/08/10 00:13:53;;;;;;;3.38;2.42;;;;;;;32.81;35.70;100376.56;4995525;28;20086;-76
2022/08/10 00:16:21;;;;;;;6.22;2.38;;;;;;;32.85;37.00;100378.06;4996165;28;20042;-78
2022/08/10 00:18:51;;;;;;;5.38;2.65;;;;;;;32.83;36.57;100385.38;5005084;28;20046;-77
2022/08/10 00:21:20;;;;;;;5.35;2.47;;;;;;;32.87;37.03;100397.56;4997447;28;20050;-78
2022/08/10 00:23:49;;;;;;;6.00;2.55;;;;;;;32.80;36.44;100385.56;5004856;28;20053;-76
2022/08/10 00:26:17;;;;;;;3.50;2.10;;;;;;;32.79;36.36;100390.06;5004403;28;20318;-77
2022/08/10 00:28:46;;;;;;;7.43;2.65;;;;;;;32.84;36.79;100389.75;5001296;28;20151;-75
2022/08/10 00:31:15;;;;;;;3.97;2.70;;;;;;;32.87;36.04;100413.63;5000740;28;20041;-75
2022/08/10 00:33:43;;;;;;;4.50;2.20;;;;;;;32.69;37.04;100400.56;4990214;28;20074;-77
2022/08/10 00:36:14;;;;;;;5.13;2.60;;;;;;;32.59;36.39;100414.69;4994739;28;20073;-76
2022/08/10 00:38:43;;;;;;;6.50;2.67;;;;;;;32.48;36.00;100391.28;5002557;28;20062;-78
2022/08/10 00:41:11;;;;;;;7.40;2.45;;;;;;;32.54;36.04;100417.69;4998328;28;20081;-78
2022/08/10 00:43:40;;;;;;;5.45;2.47;;;;;;;32.40;36.47;100399.84;5005677;28;20054;-78
2022/08/10 00:46:09;;;;;;;6.00;2.70;;;;;;;32.48;36.41;100423.41;4999144;28;20446;-80
2022/08/10 00:48:38;;;;;;;5.88;2.30;;;;;;;32.40;36.71;100421.25;4997812;28;20061;-79
2022/08/10 00:51:07;;;;;;;4.90;2.70;;;;;;;32.24;36.73;100393.81;5000735;28;20050;-78
2022/08/10 00:53:37;;;;;;;4.85;2.45;;;;;;;32.40;36.59;100415.06;4993319;28;20315;-77
2022/08/10 00:56:06;;;;;;;4.35;2.70;;;;;;;32.29;36.73;100397.88;5005996;28;20358;-78
2022/08/10 00:58:36;;;;;;;6.00;2.70;;;;;;;32.23;36.71;100387.59;5004922;28;20054;-74
2022/08/10 01:01:05;;;;;;;4.25;2.65;;;;;;;32.26;37.08;100384.72;5002480;28;20053;-77
2022/08/10 01:03:33;;;;;;;4.22;2.67;;;;;;;32.49;36.91;100406.41;5000517;28;20089;-74
2022/08/10 01:06:06;;;;;;;5.32;2.55;;;;;;;32.48;37.76;100393.94;4956926;28;20332;-78
2022/08/10 01:08:46;;;;;;;7.05;2.65;;;;;;;32.34;36.84;100374.34;4965988;28;20126;-76
2022/08/10 01:11:22;;;;;;;6.35;2.42;;;;;;;32.33;36.06;100369.09;4961290;28;20122;-73
2022/08/10 01:13:56;;;;;;;5.85;2.60;;;;;;;32.26;35.96;100379.34;4960929;28;20233;-73
2022/08/10 01:16:34;;;;;;;3.85;2.67;;;;;;;32.28;36.39;100389.97;4959236;28;20338;-74
2022/08/10 01:19:16;;;;;;;5.80;3.08;;;;;;;32.31;37.26;100385.25;4957383;28;20657;-74
2022/08/10 01:22:22;;;;;;;7.68;3.15;;;;;;;32.35;36.70;100392.13;4960800;28;20039;-76
2022/08/10 01:25:45;;;;;;;5.07;3.20;;;;;;;32.34;36.77;100394.88;4958938;28;20056;-74
2022/08/10 01:28:27;;;;;;;5.80;2.80;;;;;;;32.16;36.84;100380.91;4959033;28;20098;-73
2022/08/10 01:31:02;;;;;;;8.13;3.30;;;;;;;32.19;37.03;100390.59;4960773;28;20094;-74
2022/08/10 01:33:35;;;;;;;7.18;2.78;;;;;;;32.11;37.32;100377.69;4957816;28;20079;-75
2022/08/10 01:36:10;;;;;;;4.35;2.80;;;;;;;32.15;37.20;100395.28;4955016;28;20131;-74
2022/08/10 01:38:42;;;;;;;9.77;2.88;;;;;;;31.91;37.27;100377.19;4959289;28;20051;-74
2022/08/10 01:41:14;;;;;;;10.13;2.65;;;;;;;31.79;37.70;100377.09;4959511;28;20122;-73
2022/08/10 01:43:47;;;;;;;9.02;2.70;;;;;;;31.78;38.57;100378.94;4967204;28;20082;-73
2022/08/10 01:46:21;;;;;;;4.72;2.88;;;;;;;31.79;38.28;100386.00;4960084;28;20122;-76
2022/08/10 01:48:51;;;;;;;7.63;2.83;;;;;;;31.68;38.16;100391.16;4960918;28;20351;-76
2022/08/10 01:51:24;;;;;;;9.18;3.30;;;;;;;31.63;38.89;100404.00;4957284;28;20247;-74
2022/08/10 01:53:59;;;;;;;11.32;3.03;;;;;;;31.44;38.72;100402.50;4958034;28;20083;-73
2022/08/10 01:56:32;;;;;;;10.60;3.28;;;;;;;31.44;38.86;100405.16;4953127;28;20406;-73
2022/08/10 01:59:06;;;;;;;11.65;3.15;;;;;;;31.26;39.16;100382.25;4959310;28;20047;-72
2022/08/10 02:01:50;;;;;;;15.65;3.55;;;;;;;31.18;38.91;100377.38;4961111;28;20051;-71
2022/08/10 02:04:21;;;;;;;7.75;2.90;;;;;;;31.14;39.53;100396.38;4974540;28;20062;-73
2022/08/10 02:06:55;;;;;;;3.95;2.85;;;;;;;31.09;39.77;100388.66;5002569;28;20038;-73
2022/08/10 02:09:27;;;;;;;5.50;2.63;;;;;;;31.02;39.54;100388.16;4993156;28;20158;-72
2022/08/10 02:12:04;;;;;;;5.53;2.95;;;;;;;31.01;39.75;100390.91;4995931;28;20050;-72
2022/08/10 02:14:36;;;;;;;7.00;3.03;;;;;;;30.98;39.56;100400.00;5006698;28;20053;-73
2022/08/10 02:17:12;;;;;;;8.20;3.45;;;;;;;30.86;39.93;100392.75;4997136;28;20130;-73
2022/08/10 02:19:48;;;;;;;7.80;3.35;;;;;;;30.67;40.36;100387.59;4998046;28;20478;-71
2022/08/10 02:22:19;;;;;;;8.63;3.13;;;;;;;30.38;41.28;100402.72;4992371;28;20055;-71
2022/08/10 02:24:49;;;;;;;7.18;2.70;;;;;;;30.37;41.53;100411.66;4998792;28;20085;-73
2022/08/10 02:27:22;;;;;;;7.70;2.40;;;;;;;30.20;41.11;100405.47;4995606;28;20175;-73
2022/08/10 02:29:53;;;;;;;7.28;2.55;;;;;;;30.21;40.69;100423.16;4999238;28;20053;-73
2022/08/10 02:32:28;;;;;;;9.35;2.45;;;;;;;30.13;40.38;100419.25;4994197;28;20041;-72
2022/08/10 02:34:59;;;;;;;9.10;2.30;;;;;;;29.72;40.58;100414.44;5005272;28;20447;-73
2022/08/10 02:37:28;;;;;;;5.97;2.38;;;;;;;29.43;41.34;100393.75;5006361;28;20046;-73
2022/08/10 02:39:57;;;;;;;5.25;2.60;;;;;;;29.42;41.83;100402.69;4998446;28;20133;-74
2022/08/10 02:42:29;;;;;;;6.35;2.30;;;;;;;29.36;41.63;100400.34;4999147;28;20042;-75
2022/08/10 02:45:04;;;;;;;9.70;2.58;;;;;;;29.17;41.81;100387.16;4997683;28;20092;-75
2022/08/10 02:47:41;;;;;;;6.22;2.80;;;;;;;29.16;41.82;100424.53;4996981;28;20046;-73
2022/08/10 02:50:20;;;;;;;10.88;2.45;;;;;;;28.91;42.14;100417.84;4994089;28;20054;-73
2022/08/10 02:52:55;;;;;;;4.35;1.88;;;;;;;28.69;42.77;100427.88;5004712;28;20046;-75
2022/08/10 02:55:32;;;;;;;4.03;2.05;;;;;;;28.42;43.52;100433.59;5010366;28;20085;-74
2022/08/10 02:58:08;;;;;;;6.38;2.33;;;;;;;28.11;43.49;100435.13;4996867;28;20059;-73
2022/08/10 03:00:43;;;;;;;3.33;2.00;;;;;;;27.81;43.71;100404.66;4999860;28;20347;-75
2022/08/10 03:03:20;;;;;;;7.72;2.03;;;;;;;27.65;44.89;100445.28;4996685;28;20062;-73
2022/08/10 03:05:54;;;;;;;3.67;1.75;;;;;;;27.38;45.83;100450.06;4999973;28;20109;-75
2022/08/10 03:08:26;;;;;;;5.55;2.05;;;;;;;27.30;44.84;100466.31;4997844;28;20041;-73
2022/08/10 03:10:57;;;;;;;4.50;1.95;;;;;;;27.32;45.61;100480.38;4996188;28;20046;-73
2022/08/10 03:13:27;;;;;;;3.08;1.63;;;;;;;26.97;45.20;100433.28;5001149;28;20113;-73
2022/08/10 03:15:57;;;;;;;3.38;1.90;;;;;;;26.96;45.24;100432.38;4996750;28;20053;-75
2022/08/10 03:18:28;;;;;;;4.80;2.20;;;;;;;26.86;45.51;100429.28;5006463;28;20089;-74
2022/08/10 03:20:58;;;;;;;5.18;2.33;;;;;;;26.86;45.43;100436.38;5000676;28;20062;-74
2022/08/10 03:23:28;;;;;;;3.20;2.00;;;;;;;26.71;45.78;100429.97;5002847;28;20062;-73
2022/08/10 03:26:00;;;;;;;3.63;1.98;;;;;;;26.65;45.93;100427.56;4999979;28;20051;-74
2022/08/10 03:28:29;;;;;;;4.68;1.98;;;;;;;26.64;46.10;100450.59;4993050;28;20053;-74
2022/08/10 03:31:11;;;;;;;5.13;1.98;;;;;;;26.42;46.37;100439.94;5001687;28;20117;-73
2022/08/10 03:33:44;;;;;;;4.22;1.88;;;;;;;26.32;46.18;100434.16;4992535;28;20046;-76
2022/08/10 03:36:16;;;;;;;5.65;1.80;;;;;;;26.40;46.05;100463.03;4996349;28;20254;-74
2022/08/10 03:38:50;;;;;;;3.65;1.70;;;;;;;26.09;47.11;100436.88;4995501;28;20050;-73
2022/08/10 03:41:24;;;;;;;5.97;2.00;;;;;;;25.99;47.36;100452.28;4989382;28;20058;-74
2022/08/10 03:43:54;;;;;;;4.32;1.90;;;;;;;25.91;47.62;100465.00;4994176;28;20121;-74
2022/08/10 03:46:25;;;;;;;3.03;1.83;;;;;;;25.84;48.22;100495.28;4996016;28;20336;-73
2022/08/10 03:49:02;;;;;;;4.60;1.80;;;;;;;25.77;49.05;100509.66;5005749;28;20362;-76
2022/08/10 03:51:35;;;;;;;5.88;1.70;;;;;;;25.66;48.50;100513.59;5001017;28;20065;-76
2022/08/10 03:54:06;;;;;;;6.80;2.17;;;;;;;25.33;48.86;100530.69;4998470;28;20052;-74
2022/08/10 03:56:43;;;;;;;4.88;1.80;;;;;;;25.20;50.22;100556.75;5001975;28;20046;-73
2022/08/10 03:59:13;;;;;;;5.80;1.70;;;;;;;24.95;49.77;100546.09;5001626;28;20059;-75
2022/08/10 04:01:43;;;;;;;3.42;1.83;;;;;;;24.65;49.36;100551.47;5008570;28;20052;-76
2022/08/10 04:04:22;;;;;;;2.88;2.00;;;;;;;24.56;49.80;100575.56;5000753;28;20065;-76
2022/08/10 04:06:51;;;;;;;4.38;1.80;;;;;;;24.35;50.51;100588.50;5008538;28;20049;-76
2022/08/10 04:09:20;;;;;;;4.38;2.08;;;;;;;24.23;50.88;100612.66;4996736;28;20050;-78
2022/08/10 04:11:49;;;;;;;5.93;1.85;;;;;;;23.97;51.38;100606.34;5003135;28;20488;-76
2022/08/10 04:14:19;;;;;;;3.25;1.70;;;;;;;23.83;52.00;100616.44;4994891;28;20050;-73
2022/08/10 04:16:48;;;;;;;6.00;1.85;;;;;;;23.62;52.38;100596.75;5005209;28;20265;-73
2022/08/10 04:19:20;;;;;;;2.55;1.75;;;;;;;23.45;52.43;100570.75;5004480;28;20423;-74
2022/08/10 04:21:57;;;;;;;5.20;2.08;;;;;;;23.50;52.65;100600.56;5006435;28;20054;-77
2022/08/10 04:24:28;;;;;;;3.78;2.10;;;;;;;23.39;53.11;100626.38;4995989;28;20061;-75
2022/08/10 04:26:56;;;;;;;7.35;2.22;;;;;;;23.38;53.44;100624.63;5005805;28;20081;-73
2022/08/10 04:29:25;;;;;;;9.27;2.00;;;;;;;23.17;53.36;100584.69;4996763;28;20259;-74
2022/08/10 04:31:56;;;;;;;3.38;1.67;;;;;;;23.17;53.96;100602.28;5000493;28;20050;-73
2022/08/10 04:34:34;;;;;;;5.72;2.03;;;;;;;23.13;54.34;100642.84;5003284;28;20042;-74
2022/08/10 04:37:07;;;;;;;6.15;1.83;;;;;;;22.72;55.45;100607.72;5006875;28;20073;-72
2022/08/10 04:39:36;;;;;;;4.90;1.73;;;;;;;22.65;55.49;100629.88;5002353;28;20057;-73
2022/08/10 04:42:05;;;;;;;3.92;1.67;;;;;;;22.37;56.16;100601.47;4997437;28;20050;-72
2022/08/10 04:44:42;;;;;;;2.67;1.63;;;;;;;22.33;56.02;100611.25;5003963;28;20395;-71
2022/08/10 04:47:10;;;;;;;3.05;1.73;;;;;;;22.29;57.09;100598.16;5000754;28;20081;-76
2022/08/10 04:49:41;;;;;;;3.65;2.08;;;;;;;22.11;56.94;100588.84;5000827;28;20057;-76
2022/08/10 04:52:09;;;;;;;8.77;1.80;;;;;;;22.07;56.74;100574.00;5002087;28;20113;-74
2022/08/10 04:54:38;;;;;;;4.03;2.20;;;;;;;22.00;57.07;100559.22;5001010;28;20067;-77
2022/08/10 04:57:07;;;;;;;7.25;1.90;;;;;;;22.03;58.58;100569.66;5009890;28;20080;-77
2022/08/10 04:59:36;;;;;;;8.40;1.80;;;;;;;22.05;58.73;100565.25;5011210;28;20373;-76
2022/08/10 05:02:05;;;;;;;1.95;1.50;;;;;;;21.99;59.02;100558.34;5000612;28;20050;-78
2022/08/10 05:04:33;;;;;;;3.92;1.60;;;;;;;21.82;59.94;100532.34;4997128;28;20069;-77
2022/08/10 05:07:04;;;;;;;6.63;2.10;;;;;;;21.75;59.05;100521.06;4999596;28;20366;-77
2022/08/10 05:09:32;;;;;;;5.03;1.92;;;;;;;21.84;59.61;100538.44;5008111;28;20038;-77
2022/08/10 05:12:01;;;;;;;4.18;1.65;;;;;;;21.58;59.54;100498.59;4994517;28;20465;-76
2022/08/10 05:14:30;;;;;;;2.53;1.85;;;;;;;21.57;60.07;100516.16;5000241;28;20049;-74
2022/08/10 05:16:58;;;;;;;3.92;2.00;;;;;;;21.58;60.59;100540.72;4985265;28;20134;-74
2022/08/10 05:19:30;;;;;;;4.43;1.88;;;;;;;21.45;60.44;100555.91;5000378;28;20093;-74
2022/08/10 05:21:59;;;;;;;5.88;2.05;;;;;;;21.37;60.69;100563.88;4999597;28;20064;-74
2022/08/10 05:24:29;;;;;;;6.85;2.13;;;;;;;21.32;60.96;100592.03;4994964;28;20361;-74
2022/08/10 05:26:58;;;;;;;3.28;1.65;;;;;;;21.11;62.27;100620.44;5003694;28;20339;-80
2022/08/10 05:29:28;;;;;;;4.03;1.73;;;;;;;20.86;63.45;100625.22;5002637;28;20058;-77
2022/08/10 05:31:57;;;;;;;3.55;2.10;;;;;;;20.79;64.47;100664.78;5007713;28;20049;-75
2022/08/10 05:34:28;;;;;;;4.38;2.10;;;;;;;20.60;65.45;100680.81;4997911;28;20050;-74
2022/08/10 05:36:58;;;;;;;3.58;1.98;;;;;;;20.42;66.73;100707.31;5003498;28;20109;-76
2022/08/10 05:39:32;;;;;;;4.90;1.95;;;;;;;20.05;67.67;100677.06;4995448;28;20097;-74
2022/08/10 05:42:02;;;;;;;5.55;2.10;;;;;;;20.13;67.90;100726.88;5004372;28;20354;-77
2022/08/10 05:44:37;;;;;;;3.28;2.15;;;;;;;19.99;68.39;100713.03;4993811;28;20058;-76
2022/08/10 05:47:07;;;;;;;3.63;2.00;;;;;;;19.99;68.93;100724.38;4995141;28;20062;-77
2022/08/10 05:49:36;;;;;;;3.20;1.83;;;;;;;19.76;70.70;100708.84;5004405;28;20124;-74
2022/08/10 05:52:05;;;;;;;5.03;2.40;;;;;;;19.77;71.28;100718.47;5005575;28;20069;-73
2022/08/10 05:54:36;;;;;;;3.88;2.20;;;;;;;19.44;71.95;100699.47;4996612;28;20330;-75
2022/08/10 05:57:05;;;;;;;6.55;2.42;;;;;;;19.41;71.71;100696.00;5000268;28;20047;-74
2022/08/10 05:59:35;;;;;;;4.57;2.50;;;;;;;19.31;72.61;100708.34;5000062;28;20052;-74
2022/08/10 06:02:05;;;;;;;3.72;2.05;;;;;;;19.37;72.11;100726.63;4997613;28;20046;-74
2022/08/10 06:04:39;;;;;;;5.05;2.42;;;;;;;19.46;72.42;100734.44;5007233;28;20053;-74
2022/08/10 06:07:09;;;;;;;3.03;1.92;;;;;;;19.33;72.07;100709.16;5009078;28;20065;-74
2022/08/10 06:09:42;;;;;;;3.10;2.45;;;;;;;19.41;72.25;100711.75;5009209;28;20081;-73
2022/08/10 06:12:12;;;;;;;3.78;2.50;;;;;;;19.45;72.10;100710.84;5000416;28;20054;-73
2022/08/10 06:15:00;;;;;;;6.43;2.42;;;;;;;19.58;71.58;100728.22;5001420;28;20056;-73
2022/08/10 06:17:29;;;;;;;6.60;2.15;;;;;;;19.41;71.50;100683.75;5005715;28;20436;-74
2022/08/10 06:19:59;;;;;;;4.40;2.13;;;;;;;19.64;71.38;100724.69;5006171;28;20392;-73
2022/08/10 06:22:29;;;;;;;4.93;2.47;;;;;;;19.55;70.90;100698.50;5000770;28;20112;-73
2022/08/10 06:25:01;;;;;;;7.60;2.42;;;;;;;19.55;71.18;100688.03;5006103;28;20049;-73
2022/08/10 06:27:30;;;;;;;4.15;2.42;;;;;;;19.50;70.89;100684.56;5003268;28;20049;-73
2022/08/10 06:30:00;;;;;;;4.88;2.30;;;;;;;19.53;71.46;100692.41;4997925;28;20313;-72
2022/08/10 06:32:30;;;;;;;4.18;2.50;;;;;;;19.52;71.70;100701.19;4999772;28;20047;-75
2022/08/10 06:35:01;;;;;;;4.13;2.10;;;;;;;19.41;72.41;100683.75;5004444;28;20054;-75
2022/08/10 06:37:31;;;;;;;4.82;2.28;;;;;;;19.46;72.78;100713.44;4995889;28;20054;-75
2022/08/10 06:40:10;;;;;;;4.80;2.50;;;;;;;19.21;73.45;100683.03;4995234;28;20050;-73
2022/08/10 06:42:44;;;;;;;4.68;2.85;;;;;;;19.38;74.11;100725.75;4995598;28;20275;-74
2022/08/10 06:45:25;;;;;;;5.38;2.08;;;;;;;19.20;73.78;100721.50;5001368;28;20069;-74
2022/08/10 06:48:02;;;;;;;4.38;2.30;;;;;;;19.05;74.33;100711.97;4999778;28;20058;-75
2022/08/10 06:50:44;;;;;;;2.30;1.77;;;;;;;19.06;74.25;100718.13;5001556;28;20042;-74
2022/08/10 06:53:19;;;;;;;2.40;1.80;;;;;;;18.97;73.22;100731.28;5003021;28;20049;-75
2022/08/10 06:55:58;;;;;;;2.65;1.55;;;;;;;19.02;72.57;100772.31;4996501;28;20050;-75
2022/08/10 06:58:34;;;;;;;1.90;1.30;;;;;;;18.75;72.53;100756.69;5004272;28;20046;-74
2022/08/10 07:01:09;;;;;;;5.10;1.45;;;;;;;18.69;72.40;100780.28;5003669;28;20144;-74
2022/08/10 07:03:55;;;;;;;2.15;1.27;;;;;;;18.54;72.64;100765.50;5003936;28;20165;-74
2022/08/10 07:06:33;;;;;;;1.65;1.15;;;;;;;18.50;73.22;100779.47;5005648;28;20111;-74
2022/08/10 07:09:10;;;;;;;2.08;1.13;;;;;;;18.39;73.32;100774.25;5008439;28;20323;-74
2022/08/10 07:11:45;;;;;;;2.95;1.63;;;;;;;18.30;73.22;100780.41;5005508;28;20049;-73
2022/08/10 07:14:25;;;;;;;3.42;1.60;;;;;;;18.20;73.54;100755.97;4999483;28;20046;-75
2022/08/10 07:17:01;;;;;;;2.05;0.98;;;;;;;18.22;74.54;100766.44;5003237;28;20089;-74
2022/08/10 07:19:32;;;;;;;2.50;1.10;;;;;;;18.25;73.83;100765.56;4994319;28;20343;-74
2022/08/10 07:22:19;;;;;;;1.75;1.10;;;;;;;18.17;74.13;100735.03;4991956;28;20122;-74
2022/08/10 07:24:55;;;;;;;2.17;1.45;;;;;;;18.48;73.60;100776.84;4999523;28;20058;-74
2022/08/10 07:27:40;;;;;;;1.85;1.38;;;;;;;18.47;73.66;100769.88;4997094;28;20058;-72
2022/08/10 07:30:12;;;;;;;1.90;1.20;;;;;;;18.30;73.24;100740.22;4997688;28;20046;-74
2022/08/10 07:32:50;;;;;;;3.15;1.27;;;;;;;18.40;72.89;100747.19;4997946;28;20170;-73
2022/08/10 07:35:24;;;;;;;2.33;1.30;;;;;;;18.45;73.83;100760.28;4993800;28;20113;-75
2022/08/10 07:37:54;;;;;;;2.80;1.30;;;;;;;18.38;73.25;100755.06;4999537;28;20062;-73
2022/08/10 07:40:33;;;;;;;1.98;1.30;;;;;;;18.53;73.34;100779.44;5001743;28;20126;-73
2022/08/10 07:43:14;;;;;;;1.73;1.30;;;;;;;18.40;73.28;100769.03;5000368;28;20057;-73
2022/08/10 07:45:59;;;;;;;3.08;1.30;;;;;;;18.18;73.27;100744.59;4991946;28;20042;-73
2022/08/10 07:48:30;;;;;;;2.08;1.50;;;;;;;18.18;74.93;100762.94;5005953;28;20050;-74
2022/08/10 07:51:05;;;;;;;2.50;1.35;;;;;;;18.10;74.91;100764.72;5000900;28;20054;-73
2022/08/10 07:53:41;;;;;;;2.22;1.58;;;;;;;18.27;75.02;100803.09;5011070;28;20058;-73
2022/08/10 07:56:15;;;;;;;2.15;1.35;;;;;;;18.30;75.14;100805.69;5000184;28;20058;-73
2022/08/10 07:59:06;;;;;;;3.35;1.70;;;;;;;18.04;75.58;100772.56;4998642;28;20050;-74
2022/08/10 08:02:04;;;;;;;2.58;1.63;;;;;;;18.25;76.07;100818.81;5002020;28;20057;-75
2022/08/10 08:04:34;;;;;;;4.50;1.55;;;;;;;18.12;76.51;100820.59;4995488;28;20252;-74
2022/08/10 08:07:14;;;;;;;2.38;1.65;;;;;;;17.90;76.64;100796.13;5005430;28;20282;-75
2022/08/10 08:09:46;;;;;;;2.53;1.58;;;;;;;18.08;76.91;100824.06;4996385;28;20311;-75
2022/08/10 08:12:17;;;;;;;2.85;1.60;;;;;;;18.12;77.19;100836.28;4998507;28;20099;-74
2022/08/10 08:15:10;;;;;;;2.22;1.27;;;;;;;17.98;77.34;100817.97;4997984;28;20089;-76
2022/08/10 08:17:45;;;;;;;3.40;1.90;;;;;;;18.06;78.15;100846.75;4993673;28;20059;-74
2022/08/10 08:20:21;;;;;;;1.95;1.52;;;;;;;17.89;77.70;100812.72;4997544;28;20098;-74
2022/08/10 08:22:59;;;;;;;2.17;1.45;;;;;;;17.95;77.86;100832.78;4991171;28;20355;-74
2022/08/10 08:25:42;;;;;;;1.92;1.27;;;;;;;17.78;77.56;100803.97;5001365;28;20057;-72
2022/08/10 08:28:26;;;;;;;1.60;1.27;;;;;;;18.03;77.35;100844.16;4999508;28;20113;-74
2022/08/10 08:31:08;;;;;;;2.53;1.50;;;;;;;18.06;77.01;100833.66;5001394;28;20065;-73
2022/08/10 08:33:37;;;;;;;1.83;1.25;;;;;;;17.89;76.46;100803.97;5001293;28;20046;-74
2022/08/10 08:36:30;;;;;;;1.63;1.17;;;;;;;17.83;76.91;100801.38;5001863;28;20053;-73
2022/08/10 08:39:02;;;;;;;2.00;1.20;;;;;;;17.93;76.88;100830.16;5001168;28;20255;-73
2022/08/10 08:42:13;;;;;;;2.03;1.15;;;;;;;17.82;76.79;100810.09;4997502;28;20066;-76
2022/08/10 08:45:03;;;;;;;1.38;0.73;;;;;;;17.71;77.66;100810.94;4988740;28;20113;-76
2022/08/10 08:48:15;;;;;;;1.42;1.02;;;;;;;17.79;77.75;100839.72;5005716;28;20133;-74
2022/08/10 08:50:58;;;;;;;3.33;1.00;;;;;;;17.69;77.55;100837.97;5002749;28;20057;-74
2022/08/10 08:53:56;;;;;;;1.13;1.00;;;;;;;17.82;78.23;100872.91;5003684;28;20076;-73
2022/08/10 08:56:31;;;;;;;0.82;0.80;;;;;;;17.53;78.22;100837.94;4968804;28;20052;-74
2022/08/10 08:59:21;;;;;;;1.20;0.98;;;;;;;17.61;78.54;100848.41;5008946;28;20396;-75
2022/08/10 09:02:10;;;;;;;1.40;0.88;;;;;;;17.47;78.02;100850.13;5004863;28;20124;-76
2022/08/10 09:05:20;;;;;;;1.42;0.80;;;;;;;17.67;78.26;100877.22;4999701;28;20085;-76
2022/08/10 09:08:24;;;;;;;2.13;1.00;;;;;;;17.62;79.12;100876.34;4989124;28;20056;-76
2022/08/10 09:10:59;;;;;;;3.25;1.10;;;;;;;17.71;78.26;100885.97;4986754;28;20062;-75
2022/08/10 09:13:38;;;;;;;1.90;1.13;;;;;;;17.73;78.34;100889.41;4993350;28;20289;-79
2022/08/10 09:16:21;;;;;;;1.52;0.90;;;;;;;17.69;78.19;100872.84;5005600;28;20100;-75
2022/08/10 09:19:00;;;;;;;2.38;1.05;;;;;;;17.91;77.84;100909.56;5002881;28;20057;-76
2022/08/10 09:21:45;;;;;;;1.20;0.90;;;;;;;17.88;78.44;100917.44;5001180;28;20054;-75
2022/08/10 09:24:23;;;;;;;1.45;0.90;;;;;;;17.65;78.75;100893.78;4998968;28;20057;-76
2022/08/10 09:27:15;;;;;;;1.33;1.00;;;;;;;17.71;78.92;100904.28;5001625;28;20058;-77
2022/08/10 09:29:52;;;;;;;2.65;1.15;;;;;;;17.51;79.41;100872.81;4996902;28;20053;-77
2022/08/10 09:32:39;;;;;;;1.52;0.93;;;;;;;17.61;79.44;100890.28;5006804;28;20335;-77
2022/08/10 09:35:32;;;;;;;1.40;1.00;;;;;;;17.48;79.15;100889.38;5005377;28;20073;-76
2022/08/10 09:38:18;;;;;;;5.65;0.88;;;;;;;17.73;79.81;100933.91;4998566;28;20069;-74
2022/08/10 09:41:04;;;;;;;1.85;0.90;;;;;;;17.68;79.39;100922.56;4998455;28;20046;-74
2022/08/10 09:43:51;;;;;;;2.20;0.88;;;;;;;17.75;79.14;100940.03;5002827;28;20042;-75
2022/08/10 09:46:42;;;;;;;1.40;1.00;;;;;;;17.52;79.82;100901.59;5008865;28;20076;-75
2022/08/10 09:49:21;;;;;;;2.05;1.17;;;;;;;17.75;79.11;100935.69;5002739;28;20350;-75
2022/08/10 09:52:02;;;;;;;1.63;1.05;;;;;;;17.48;79.29;100891.13;4995777;28;20113;-74
2022/08/10 09:55:07;;;;;;;1.52;0.98;;;;;;;17.67;79.72;100915.59;4999234;28;20058;-76
2022/08/10 09:57:46;;;;;;;1.52;1.08;;;;;;;17.79;80.22;100942.66;4998549;28;20053;-76
2022/08/10 10:00:20;;;;;;;1.33;1.02;;;;;;;17.66;79.45;100917.34;4995813;28;21118;-74
2022/08/10 10:03:10;;;;;;;1.70;1.20;;;;;;;17.73;79.68;100929.56;4999271;28;20049;-74
2022/08/10 10:06:08;;;;;;;1.38;1.10;;;;;;;17.80;79.40;100940.94;4995810;28;20070;-77
2022/08/10 10:08:52;;;;;;;1.17;0.90;;;;;;;17.68;79.68;100928.66;5001110;28;20049;-77
2022/08/10 10:11:47;;;;;;;1.42;0.90;;;;;;;17.78;79.50;100940.06;4999550;28;20055;-75
2022/08/10 10:14:27;;;;;;;2.20;1.17;;;;;;;17.81;79.42;100955.78;4997841;28;20100;-76
2022/08/10 10:17:13;;;;;;;1.63;1.00;;;;;;;17.73;79.20;100932.19;5003346;28;20061;-76
2022/08/10 10:20:13;;;;;;;1.38;0.95;;;;;;;17.50;79.09;100912.91;4995911;28;20089;-75
2022/08/10 10:22:59;;;;;;;1.52;0.80;;;;;;;17.56;79.07;100919.03;4999840;28;20056;-77
2022/08/10 10:28:37;;;;;;;3.67;1.00;;;;;;;17.60;78.80;100930.41;4999330;28;20054;-74
2022/08/10 10:31:26;;;;;;;2.33;1.23;;;;;;;17.54;79.38;100925.13;5006484;28;20089;-77
2022/08/10 10:34:17;;;;;;;1.42;1.00;;;;;;;17.61;79.71;100928.66;5010126;28;20078;-76
2022/08/10 10:36:47;;;;;;;2.63;0.93;;;;;;;17.62;79.52;100933.03;4998941;28;20117;-74
2022/08/10 10:39:21;;;;;;;3.60;0.93;;;;;;;17.52;79.60;100929.50;5006443;28;20066;-77
2022/08/10 10:42:00;;;;;;;1.02;0.73;;;;;;;17.51;79.16;100931.25;5001231;28;20046;-76
2022/08/10 10:44:51;;;;;;;1.58;0.73;;;;;;;17.43;79.73;100909.44;4999562;28;20042;-76
2022/08/10 10:47:45;;;;;;;2.03;0.73;;;;;;;17.67;79.18;100942.63;4997039;28;20063;-75
2022/08/10 10:50:25;;;;;;;1.50;0.70;;;;;;;17.59;79.16;100928.63;5009184;28;20116;-75
2022/08/10 10:53:16;;;;;;;1.60;0.70;;;;;;;17.53;78.60;100919.03;5003231;28;20506;-76
2022/08/10 10:55:50;;;;;;;1.50;1.10;;;;;;;17.59;79.12;100928.63;5001359;28;20050;-76
2022/08/10 10:58:36;;;;;;;2.05;0.75;;;;;;;17.54;78.66;100926.00;5009963;28;20042;-78
2022/08/10 11:01:30;;;;;;;1.02;0.60;;;;;;;17.78;78.36;100961.00;5003310;28;20292;-76
2022/08/10 11:04:17;;;;;;;2.03;0.80;;;;;;;17.73;78.63;100958.38;5003640;28;20104;-75
2022/08/10 11:07:04;;;;;;;1.20;0.90;;;;;;;17.52;79.12;100926.88;4999999;28;20121;-76
2022/08/10 11:09:45;;;;;;;1.98;0.82;;;;;;;17.77;79.00;100962.75;4994018;28;20050;-75
2022/08/10 11:12:24;;;;;;;1.60;1.00;;;;;;;17.68;79.02;100952.22;5004789;28;20058;-77
2022/08/10 11:15:06;;;;;;;1.67;1.00;;;;;;;17.70;78.72;100957.47;4991287;28;20080;-75
2022/08/10 11:17:54;;;;;;;1.75;1.10;;;;;;;17.69;78.98;100951.38;5009158;28;20070;-77
2022/08/10 11:20:35;;;;;;;1.08;0.77;;;;;;;17.78;78.88;100972.34;5009799;28;20117;-79
2022/08/10 11:23:34;;;;;;;1.27;0.80;;;;;;;17.74;79.41;100972.31;5009173;28;20053;-79
2022/08/10 11:26:19;;;;;;;1.95;0.82;;;;;;;17.54;79.39;100946.94;5006423;28;20088;-79
2022/08/10 11:28:55;;;;;;;2.58;0.90;;;;;;;17.68;79.69;100974.91;5005273;28;20050;-76
2022/08/10 11:31:37;;;;;;;1.63;0.88;;;;;;;17.53;79.71;100950.44;4997136;28;20055;-77
2022/08/10 11:34:21;;;;;;;1.20;0.80;;;;;;;17.66;80.00;100982.75;4996445;28;20116;-76
2022/08/10 11:37:15;;;;;;;1.48;0.80;;;;;;;17.46;79.63;100948.66;5007788;28;20053;-75
2022/08/10 11:39:53;;;;;;;1.90;0.70;;;;;;;17.48;80.11;100961.75;5012686;28;20054;-74
2022/08/10 11:42:30;;;;;;;1.67;0.90;;;;;;;17.62;80.03;100988.84;5013895;28;20342;-77
2022/08/10 11:45:09;;;;;;;1.25;0.80;;;;;;;17.40;80.39;100951.25;5008869;28;20061;-73
2022/08/10 11:47:49;;;;;;;1.30;0.98;;;;;;;17.59;80.78;100983.59;5007490;28;20105;-76
2022/08/10 11:50:32;;;;;;;2.00;1.08;;;;;;;17.40;81.06;100950.38;5001008;28;20453;-76
2022/08/10 11:53:10;;;;;;;1.20;0.90;;;;;;;17.59;80.47;100989.72;5000358;28;20069;-76
2022/08/10 11:55:52;;;;;;;1.02;0.77;;;;;;;17.51;80.81;100972.22;5002243;28;20106;-77
2022/08/10 12:01:22;;;;;;;2.08;0.95;;;;;;;17.35;81.33;100953.84;5002849;28;20125;-75
2022/08/10 12:04:06;;;;;;;1.63;0.95;;;;;;;17.45;81.09;100966.97;4996997;28;20066;-75
2022/08/10 12:06:53;;;;;;;1.10;0.90;;;;;;;17.60;81.40;100987.97;4997085;28;20097;-77
2022/08/10 12:09:24;;;;;;;1.35;0.93;;;;;;;17.40;81.09;100940.78;5010419;28;20078;-77
2022/08/10 12:12:05;;;;;;;1.20;0.93;;;;;;;17.64;81.63;100984.50;5001440;28;20079;-76
2022/08/10 12:14:48;;;;;;;1.08;0.85;;;;;;;17.55;81.67;100964.41;4994986;28;20053;-77